Time;durP1;ratioP1;P1;durP2;ratioP2;P2;SDS_P1;SDS_P2;PMS_P1;PMS_P2;Temp;Humidity;BMP_temperature;BMP_pressure;BME280_temperature;BME280_humidity;BME280_pressure;Samples;Min_cycle;Max_cycle;Signal;HPM_P1;HPM_P2
2023/11/13 00:02:22;;;;;;;11.82;5.75;;;;;;;3.46;97.81;99795.28;6170174;28;20058;-75
2023/11/13 00:05:23;;;;;;;12.10;6.00;;;;;;;3.36;97.43;99788.78;6166803;28;20139;-72
2023/11/13 00:08:24;;;;;;;8.13;5.85;;;;;;;3.18;97.40;99790.25;6198547;28;20565;-72
2023/11/13 00:11:25;;;;;;;9.90;5.50;;;;;;;3.22;97.66;99797.81;6187682;28;20082;-72
2023/11/13 00:14:26;;;;;;;8.52;5.25;;;;;;;3.26;97.42;99820.94;6173505;28;20101;-72
2023/11/13 00:17:27;;;;;;;9.75;5.78;;;;;;;3.16;97.41;99808.34;6157581;28;20047;-76
2023/11/13 00:20:29;;;;;;;8.73;5.65;;;;;;;3.25;98.15;99816.66;6164393;28;20536;-75
2023/11/13 00:23:33;;;;;;;11.25;5.70;;;;;;;3.18;98.66;99824.63;6172878;28;20146;-72
2023/11/13 00:26:34;;;;;;;12.95;5.93;;;;;;;3.23;99.19;99821.88;6170656;28;20074;-72
2023/11/13 00:29:35;;;;;;;9.32;5.22;;;;;;;3.22;99.64;99825.34;6202839;28;20473;-75
2023/11/13 00:32:36;;;;;;;12.02;6.28;;;;;;;3.18;99.60;99824.63;6162137;28;20142;-72
2023/11/13 00:35:37;;;;;;;9.95;6.05;;;;;;;3.16;99.35;99830.72;6157118;28;20047;-72
2023/11/13 00:38:37;;;;;;;10.18;5.60;;;;;;;3.13;99.69;99836.84;6173482;28;20053;-76
2023/11/13 00:41:41;;;;;;;10.10;5.07;;;;;;;3.19;99.61;99848.66;6172382;28;20058;-76
2023/11/13 00:44:42;;;;;;;10.60;5.97;;;;;;;3.14;99.27;99841.09;6163642;28;20133;-72
2023/11/13 00:47:43;;;;;;;7.03;5.37;;;;;;;3.17;99.79;99846.16;6171618;28;20054;-75
2023/11/13 00:50:44;;;;;;;10.60;5.50;;;;;;;3.16;99.56;99844.44;6168314;28;20336;-76
2023/11/13 00:53:46;;;;;;;8.40;5.68;;;;;;;3.13;99.71;99828.22;6161239;28;20067;-76
2023/11/13 00:56:47;;;;;;;10.50;5.60;;;;;;;3.19;99.75;99841.78;6165198;28;20065;-75
2023/11/13 00:59:48;;;;;;;9.10;5.53;;;;;;;3.21;99.47;99837.41;6171624;28;20097;-72
2023/11/13 01:02:49;;;;;;;10.30;5.18;;;;;;;3.26;99.58;99839.81;6172242;28;20046;-75
2023/11/13 01:05:50;;;;;;;10.35;5.38;;;;;;;3.25;99.58;99848.44;6184622;28;20053;-72
2023/11/13 01:08:51;;;;;;;10.27;5.72;;;;;;;3.23;99.52;99851.09;6196743;28;20042;-72
2023/11/13 01:11:54;;;;;;;8.18;5.05;;;;;;;3.23;99.58;99842.50;6190382;28;20050;-76
2023/11/13 01:14:55;;;;;;;13.38;6.20;;;;;;;3.22;99.56;99846.81;6195160;28;20058;-76
2023/11/13 01:17:56;;;;;;;8.98;5.40;;;;;;;3.29;99.94;99844.88;6193195;28;20054;-72
2023/11/13 01:20:59;;;;;;;8.40;5.28;;;;;;;3.30;99.57;99848.31;6185076;28;20047;-75
2023/11/13 01:24:00;;;;;;;10.90;6.95;;;;;;;3.29;99.30;99844.88;6184641;28;20050;-72
2023/11/13 01:27:01;;;;;;;13.73;7.05;;;;;;;3.23;99.84;99851.09;6190227;28;20046;-72
2023/11/13 01:30:02;;;;;;;13.98;5.22;;;;;;;3.27;99.56;99856.13;6190079;28;20054;-76
2023/11/13 01:33:03;;;;;;;7.13;5.07;;;;;;;3.32;99.41;99838.78;6188544;28;20050;-72
2023/11/13 01:36:04;;;;;;;8.85;5.38;;;;;;;3.26;99.55;99834.66;6196346;28;20501;-74
2023/11/13 01:39:06;;;;;;;12.75;5.25;;;;;;;3.23;99.96;99839.91;6183515;28;20049;-76
2023/11/13 01:42:06;;;;;;;11.18;5.20;;;;;;;3.18;99.97;99837.50;6195204;28;20059;-71
2023/11/13 01:45:07;;;;;;;14.70;5.90;;;;;;;3.20;99.92;99846.03;6183188;28;20067;-76
2023/11/13 01:48:08;;;;;;;7.05;4.53;;;;;;;3.15;99.91;99837.63;6166762;28;20486;-75
2023/11/13 01:51:13;;;;;;;9.82;5.10;;;;;;;3.14;100.00;99840.25;6195581;28;20054;-75
2023/11/13 01:54:15;;;;;;;10.50;5.78;;;;;;;3.11;99.78;99845.50;6188388;28;20051;-76
2023/11/13 01:57:16;;;;;;;;;;;;;;;3.11;99.82;99848.94;6189253;28;20494;-75
2023/11/13 02:00:17;;;;;;;7.75;4.50;;;;;;;3.07;99.91;99836.19;6193682;28;19929;-72
2023/11/13 02:03:20;;;;;;;7.93;4.90;;;;;;;3.06;99.98;99848.22;6198715;28;20057;-76
2023/11/13 02:06:24;;;;;;;10.18;5.28;;;;;;;3.04;99.97;99842.28;6198114;28;20178;-75
2023/11/13 02:09:30;;;;;;;11.50;5.20;;;;;;;3.08;99.64;99833.56;6198458;28;20096;-72
2023/11/13 02:12:32;;;;;;;8.70;4.80;;;;;;;3.06;99.54;99844.81;6199615;28;20054;-72
2023/11/13 02:15:33;;;;;;;6.10;4.13;;;;;;;3.05;99.74;99845.69;6198119;28;20062;-72
2023/11/13 02:18:37;;;;;;;7.35;4.30;;;;;;;3.08;100.00;99849.03;6149816;28;20054;-75
2023/11/13 02:21:37;;;;;;;8.52;4.30;;;;;;;3.08;99.82;99846.44;6180654;28;20141;-75
2023/11/13 02:24:38;;;;;;;6.20;4.25;;;;;;;3.16;99.80;99857.34;6196951;28;20666;-75
2023/11/13 02:27:46;;;;;;;8.13;4.13;;;;;;;3.09;99.03;99861.03;6197240;28;20050;-72
2023/11/13 02:30:47;;;;;;;8.48;4.13;;;;;;;3.08;98.96;99869.66;6196978;28;20423;-72
2023/11/13 02:33:48;;;;;;;7.25;4.50;;;;;;;3.08;99.25;99861.91;6180315;28;20054;-72
2023/11/13 02:36:52;;;;;;;13.10;4.65;;;;;;;3.14;99.24;99869.44;6196273;28;20058;-75
2023/11/13 02:39:52;;;;;;;12.07;5.05;;;;;;;3.16;99.80;99861.66;6197873;28;20508;-75
2023/11/13 02:42:53;;;;;;;10.02;4.97;;;;;;;3.26;100.00;99873.34;6196217;28;21181;-72
2023/11/13 02:45:55;;;;;;;10.70;5.30;;;;;;;3.29;99.45;99860.34;6198532;28;20478;-72
2023/11/13 02:48:56;;;;;;;12.48;6.07;;;;;;;3.38;99.99;99866.94;6195965;28;20533;-75
2023/11/13 02:51:57;;;;;;;21.88;8.35;;;;;;;3.39;100.00;99855.72;6190993;28;20491;-72
2023/11/13 02:54:57;;;;;;;17.45;8.38;;;;;;;3.40;99.91;99866.00;6174643;28;20055;-72
2023/11/13 02:57:58;;;;;;;15.70;8.35;;;;;;;3.38;100.00;99861.78;6185880;28;20394;-72
2023/11/13 03:00:59;;;;;;;16.27;7.22;;;;;;;3.39;100.00;99864.28;6170216;28;20042;-75
2023/11/13 03:04:01;;;;;;;13.40;7.03;;;;;;;3.40;100.00;99860.00;6166122;28;20141;-76
2023/11/13 03:07:02;;;;;;;9.45;5.25;;;;;;;3.34;99.67;99865.38;6169749;28;20106;-72
2023/11/13 03:10:03;;;;;;;10.15;6.20;;;;;;;3.29;99.59;99859.50;6170918;28;20047;-76
2023/11/13 03:13:04;;;;;;;18.13;9.03;;;;;;;3.22;99.47;99858.88;6168468;28;20058;-72
2023/11/13 03:16:06;;;;;;;14.88;7.95;;;;;;;3.18;99.39;99860.72;6167719;28;20132;-76
2023/11/13 03:19:09;;;;;;;17.88;7.88;;;;;;;3.21;99.02;99864.91;6170343;28;20043;-75
2023/11/13 03:22:11;;;;;;;17.88;9.20;;;;;;;3.20;98.84;99870.97;6160704;28;20491;-75
2023/11/13 03:25:14;;;;;;;13.60;7.47;;;;;;;3.15;99.15;99881.47;6161326;28;20051;-76
2023/11/13 03:28:15;;;;;;;11.15;6.03;;;;;;;3.10;99.13;99877.34;6170840;28;20050;-76
2023/11/13 03:31:17;;;;;;;13.30;5.68;;;;;;;3.08;98.81;99879.13;6168819;28;20046;-76
2023/11/13 03:34:18;;;;;;;8.45;5.60;;;;;;;3.07;98.88;99887.72;6183361;28;20078;-72
2023/11/13 03:37:19;;;;;;;8.52;4.80;;;;;;;3.07;98.45;99887.72;6169312;28;20584;-72
2023/11/13 03:40:20;;;;;;;8.65;5.70;;;;;;;3.09;99.12;99878.22;6170114;28;20047;-76
2023/11/13 03:43:21;;;;;;;9.52;5.07;;;;;;;2.98;98.58;99873.41;6202322;28;20169;-72
2023/11/13 03:46:22;;;;;;;7.37;4.77;;;;;;;2.97;99.00;99871.75;6125519;28;1174481;-72
2023/11/13 03:49:23;;;;;;;10.77;4.32;;;;;;;3.00;99.26;99880.19;6159957;28;20061;-72
2023/11/13 03:52:24;;;;;;;7.00;3.97;;;;;;;3.00;99.30;99881.94;6163194;28;20093;-76
2023/11/13 03:55:27;;;;;;;7.18;4.50;;;;;;;2.99;99.79;99875.13;6179920;28;20520;-76
2023/11/13 03:58:31;;;;;;;8.63;4.25;;;;;;;3.03;100.00;99869.81;6187015;28;20050;-72
2023/11/13 04:01:32;;;;;;;11.18;6.00;;;;;;;3.09;100.00;99873.06;6162724;28;20059;-72
2023/11/13 04:04:33;;;;;;;8.25;5.40;;;;;;;3.13;100.00;99867.78;6162152;28;20059;-71
2023/11/13 04:07:34;;;;;;;7.78;4.93;;;;;;;3.18;100.00;99875.34;6166329;28;20370;-76
2023/11/13 04:10:35;;;;;;;10.38;5.28;;;;;;;3.21;100.00;99883.84;6161149;28;20047;-72
2023/11/13 04:13:36;;;;;;;13.02;6.22;;;;;;;3.25;100.00;99883.72;6154027;28;20140;-72
2023/11/13 04:16:38;;;;;;;10.55;5.53;;;;;;;3.28;100.00;99883.63;6170221;28;20050;-75
2023/11/13 04:19:39;;;;;;;18.23;6.35;;;;;;;3.26;100.00;99882.84;6171204;28;20077;-75
2023/11/13 04:22:41;;;;;;;8.48;5.00;;;;;;;3.26;100.00;99881.09;6156784;28;20794;-72
2023/11/13 04:25:46;;;;;;;12.95;5.82;;;;;;;3.37;100.00;99888.47;6156858;28;20584;-75
2023/11/13 04:28:47;;;;;;;12.82;5.90;;;;;;;3.36;100.00;99891.94;6170779;28;20485;-76
2023/11/13 04:31:48;;;;;;;14.40;6.90;;;;;;;3.31;100.00;99889.50;6163250;28;20137;-76
2023/11/13 04:34:49;;;;;;;15.43;7.50;;;;;;;3.27;100.00;99882.75;6160404;28;20051;-76
2023/11/13 04:37:50;;;;;;;11.02;5.90;;;;;;;3.33;100.00;99885.13;6165680;28;20067;-72
2023/11/13 04:40:53;;;;;;;15.57;7.32;;;;;;;3.35;100.00;99883.34;6164571;28;20105;-72
2023/11/13 04:43:54;;;;;;;15.50;7.57;;;;;;;3.34;100.00;99896.31;6150078;28;20505;-73
2023/11/13 04:46:58;;;;;;;15.63;9.38;;;;;;;3.23;100.00;99871.72;6171137;28;20137;-75
2023/11/13 04:49:59;;;;;;;40.47;20.58;;;;;;;3.23;100.00;99876.88;6186542;28;20051;-73
2023/11/13 04:53:00;;;;;;;62.13;29.08;;;;;;;3.22;100.00;99870.03;6168758;28;20062;-72
2023/11/13 04:56:04;;;;;;;67.70;30.13;;;;;;;3.22;100.00;99869.19;6153046;28;20395;-72
2023/11/13 04:59:06;;;;;;;33.17;17.13;;;;;;;3.20;100.00;99861.50;6185366;28;20074;-72
2023/11/13 05:02:09;;;;;;;15.68;9.20;;;;;;;3.19;100.00;99869.28;6167343;28;20055;-76
2023/11/13 05:05:11;;;;;;;16.60;6.82;;;;;;;3.16;100.00;99865.06;6193430;28;20046;-75
2023/11/13 05:08:14;;;;;;;8.00;5.30;;;;;;;3.14;100.00;99864.28;6196017;28;20058;-75
2023/11/13 05:11:22;;;;;;;11.05;6.50;;;;;;;3.11;100.00;99863.53;6180480;28;20296;-76
2023/11/13 05:14:23;;;;;;;9.40;5.45;;;;;;;3.11;100.00;99861.81;6176018;28;20494;-76
2023/11/13 05:17:24;;;;;;;8.80;4.93;;;;;;;3.07;100.00;99877.41;6181666;28;20054;-76
2023/11/13 05:20:32;;;;;;;9.20;5.40;;;;;;;3.05;99.85;99874.06;6178397;28;20043;-72
2023/11/13 05:23:33;;;;;;;12.32;6.70;;;;;;;3.07;99.99;99883.44;6186041;28;20054;-72
2023/11/13 05:26:35;;;;;;;16.95;6.97;;;;;;;3.07;100.00;99875.72;6162440;28;20122;-71
2023/11/13 05:29:36;;;;;;;13.88;6.80;;;;;;;3.10;100.00;99861.88;6163076;28;20050;-72
2023/11/13 05:32:37;;;;;;;12.15;6.82;;;;;;;3.13;100.00;99865.19;6165812;28;20051;-75
2023/11/13 05:35:37;;;;;;;13.73;6.88;;;;;;;3.15;100.00;99880.59;6162031;28;20102;-76
2023/11/13 05:38:42;;;;;;;12.43;6.60;;;;;;;3.14;100.00;99889.22;6174928;28;20533;-76
2023/11/13 05:41:44;;;;;;;11.82;6.10;;;;;;;3.14;100.00;99886.66;6178344;28;20053;-75
2023/11/13 05:44:45;;;;;;;9.25;6.20;;;;;;;3.11;100.00;99887.59;6161176;28;20659;-72
2023/11/13 05:47:46;;;;;;;13.00;6.25;;;;;;;3.09;100.00;99899.72;6191957;28;20069;-76
2023/11/13 05:50:48;;;;;;;12.30;6.90;;;;;;;3.15;100.00;99903.78;6193594;28;20055;-72
2023/11/13 05:53:49;;;;;;;14.50;6.50;;;;;;;3.18;100.00;99911.44;6193237;28;20077;-76
2023/11/13 05:56:50;;;;;;;19.15;8.57;;;;;;;3.25;100.00;99904.34;6193140;28;20145;-72
2023/11/13 05:59:51;;;;;;;20.27;9.65;;;;;;;3.31;100.00;99907.56;6194368;28;20073;-72
2023/11/13 06:02:52;;;;;;;16.75;7.60;;;;;;;3.39;100.00;99902.16;6194088;28;20540;-72
2023/11/13 06:05:55;;;;;;;11.80;6.70;;;;;;;3.45;100.00;99909.69;6193191;28;20129;-72
2023/11/13 06:08:59;;;;;;;12.90;6.07;;;;;;;3.55;100.00;99905.06;6193427;28;20133;-73
2023/11/13 06:12:00;;;;;;;31.48;13.48;;;;;;;3.62;100.00;99904.78;6194818;28;20088;-76
2023/11/13 06:15:01;;;;;;;26.58;11.90;;;;;;;3.70;100.00;99907.09;6193484;28;20050;-76
2023/11/13 06:18:02;;;;;;;19.05;8.50;;;;;;;3.74;100.00;99907.81;6194090;28;20137;-75
2023/11/13 06:21:06;;;;;;;10.95;6.25;;;;;;;3.81;100.00;99911.91;6145001;29;20051;-72
2023/11/13 06:24:10;;;;;;;13.93;5.80;;;;;;;3.83;100.00;99918.69;6188362;28;20057;-73
2023/11/13 06:27:11;;;;;;;13.02;6.25;;;;;;;3.89;100.00;99927.94;6191600;28;20096;-75
2023/11/13 06:30:12;;;;;;;15.43;5.05;;;;;;;3.93;100.00;99929.53;6188076;28;20054;-76
2023/11/13 06:33:15;;;;;;;11.90;5.93;;;;;;;4.04;100.00;99940.28;6192935;28;20053;-73
2023/11/13 06:36:16;;;;;;;9.50;5.78;;;;;;;4.14;100.00;99934.78;6194733;28;20141;-73
2023/11/13 06:39:19;;;;;;;22.58;8.75;;;;;;;4.14;100.00;99932.19;6193253;28;20050;-76
2023/11/13 06:42:20;;;;;;;17.27;6.45;;;;;;;4.21;100.00;99939.69;6197609;28;20101;-76
2023/11/13 06:45:21;;;;;;;9.68;5.75;;;;;;;4.27;100.00;99943.78;6198795;28;20082;-72
2023/11/13 06:48:25;;;;;;;10.80;5.47;;;;;;;4.33;100.00;99940.16;6197349;28;20064;-76
2023/11/13 06:51:26;;;;;;;13.63;6.20;;;;;;;4.39;100.00;99945.91;6197713;28;20050;-76
2023/11/13 06:54:27;;;;;;;10.93;5.35;;;;;;;4.47;100.00;99950.81;6197797;28;20057;-76
2023/11/13 06:57:28;;;;;;;11.55;6.72;;;;;;;4.51;100.00;99948.94;6198566;28;20054;-72
2023/11/13 07:00:29;;;;;;;22.92;8.55;;;;;;;4.66;100.00;99947.53;6197411;28;20101;-72
2023/11/13 07:03:31;;;;;;;16.27;8.48;;;;;;;4.74;100.00;99956.66;6197296;28;20497;-72
2023/11/13 07:06:32;;;;;;;20.50;8.15;;;;;;;4.81;99.95;99959.84;6198412;28;20137;-72
2023/11/13 07:09:33;;;;;;;12.20;6.20;;;;;;;4.89;99.96;99959.56;6196929;28;20383;-72
2023/11/13 07:12:39;;;;;;;11.20;5.50;;;;;;;4.89;100.00;99954.38;6196890;28;20181;-72
2023/11/13 07:15:40;;;;;;;20.40;6.47;;;;;;;4.89;100.00;99955.22;6198190;28;20422;-72
2023/11/13 07:18:41;;;;;;;9.07;4.30;;;;;;;5.00;99.23;99962.56;6197108;28;20133;-76
2023/11/13 07:21:44;;;;;;;11.68;5.60;;;;;;;5.00;100.00;99963.41;6196703;28;20061;-76
2023/11/13 07:24:46;;;;;;;8.10;5.00;;;;;;;5.04;100.00;99964.97;6197885;28;20505;-75
2023/11/13 07:27:46;;;;;;;9.43;5.88;;;;;;;5.12;100.00;99949.13;6196952;28;20125;-74
2023/11/13 07:30:48;;;;;;;10.82;7.05;;;;;;;5.16;99.70;99960.19;6197933;28;20051;-75
2023/11/13 07:33:49;;;;;;;13.93;7.13;;;;;;;5.20;99.67;99965.19;6198119;28;20054;-73
2023/11/13 07:36:50;;;;;;;11.27;5.82;;;;;;;5.29;99.37;99966.56;6197713;28;20445;-76
2023/11/13 07:39:51;;;;;;;9.68;5.50;;;;;;;5.32;99.85;99963.03;6197586;28;20100;-73
2023/11/13 07:42:52;;;;;;;8.88;5.47;;;;;;;5.41;99.87;99958.28;6197473;28;20068;-75
2023/11/13 07:45:53;;;;;;;10.52;5.97;;;;;;;5.57;99.32;99952.50;6197358;28;20500;-76
2023/11/13 07:48:54;;;;;;;7.97;4.75;;;;;;;5.60;98.51;99945.44;6197768;28;20050;-76
2023/11/13 07:51:58;;;;;;;8.98;4.72;;;;;;;5.78;97.61;99951.56;6196105;28;20046;-76
2023/11/13 07:55:01;;;;;;;9.57;4.82;;;;;;;5.73;96.35;99937.16;6196812;28;20050;-76
2023/11/13 07:58:04;;;;;;;11.13;4.53;;;;;;;5.90;96.51;99945.03;6197293;28;20050;-73
2023/11/13 08:01:05;;;;;;;9.07;3.97;;;;;;;5.92;95.13;99942.38;6195969;28;20133;-73
2023/11/13 08:04:07;;;;;;;6.45;4.03;;;;;;;6.09;95.46;99939.91;6197156;28;20060;-76
2023/11/13 08:07:07;;;;;;;6.63;4.28;;;;;;;6.19;94.85;99940.34;6197369;28;20054;-75
2023/11/13 08:10:14;;;;;;;6.45;4.18;;;;;;;6.25;94.33;99933.13;6195804;28;20042;-72
2023/11/13 08:13:17;;;;;;;11.90;5.13;;;;;;;6.23;93.40;99924.59;6195529;28;20054;-75
2023/11/13 08:16:18;;;;;;;;;;;;;;;6.30;93.61;99930.38;6197533;28;20053;-76
2023/11/13 08:19:19;;;;;;;8.25;5.15;;;;;;;6.27;93.99;99925.31;6196730;28;19921;-76
2023/11/13 08:22:20;;;;;;;10.10;6.20;;;;;;;6.40;94.45;99920.38;6195553;28;20089;-76
2023/11/13 08:25:20;;;;;;;32.28;15.43;;;;;;;6.37;93.34;99929.16;6196669;28;20056;-75
2023/11/13 08:28:21;;;;;;;36.15;15.40;;;;;;;6.43;92.60;99926.28;6196493;28;20485;-73
2023/11/13 08:31:22;;;;;;;77.75;28.58;;;;;;;6.56;91.73;99925.72;6196451;28;20046;-73
2023/11/13 08:34:23;;;;;;;54.13;22.85;;;;;;;6.52;92.06;99919.81;6195340;28;20064;-76
2023/11/13 08:37:25;;;;;;;47.75;20.63;;;;;;;6.50;92.39;99911.28;6196317;28;20050;-76
2023/11/13 08:40:29;;;;;;;42.35;17.50;;;;;;;6.60;92.88;99928.09;6196325;28;20038;-72
2023/11/13 08:43:32;;;;;;;30.73;14.27;;;;;;;6.59;92.76;99920.38;6195029;28;20050;-76
2023/11/13 08:46:35;;;;;;;12.45;6.25;;;;;;;6.61;91.76;99922.00;6195907;28;20785;-72
2023/11/13 08:49:41;;;;;;;21.75;8.35;;;;;;;6.63;91.76;99915.00;6195022;28;20354;-75
2023/11/13 08:52:44;;;;;;;12.55;6.53;;;;;;;6.68;91.82;99924.31;6194681;28;20058;-72
2023/11/13 08:55:45;;;;;;;17.08;7.63;;;;;;;6.68;91.46;99922.56;6194714;28;20065;-72
2023/11/13 08:58:48;;;;;;;8.73;4.82;;;;;;;6.70;91.24;99925.09;6195706;28;20461;-76
2023/11/13 09:01:49;;;;;;;14.27;6.95;;;;;;;6.70;91.84;99930.28;6194604;28;20497;-73
2023/11/13 09:04:50;;;;;;;14.90;7.25;;;;;;;6.80;92.22;99932.34;6195343;28;20050;-76
2023/11/13 09:07:52;;;;;;;17.13;7.75;;;;;;;6.89;91.17;99920.69;6196135;28;20833;-76
2023/11/13 09:10:53;;;;;;;21.73;8.95;;;;;;;7.01;91.66;99914.09;6195763;28;20051;-76
2023/11/13 09:13:55;;;;;;;41.38;17.77;;;;;;;7.11;91.44;99920.50;6194361;28;20061;-76
2023/11/13 09:16:56;;;;;;;40.50;17.45;;;;;;;7.19;91.21;99909.75;6195719;28;20121;-76
2023/11/13 09:19:57;;;;;;;19.88;10.13;;;;;;;7.23;90.80;99908.69;6195432;28;20054;-73
2023/11/13 09:23:00;;;;;;;13.43;8.48;;;;;;;7.37;90.51;99908.84;6194301;28;20120;-76
2023/11/13 09:26:01;;;;;;;10.93;5.68;;;;;;;7.40;88.85;99903.47;6195464;28;20682;-73
2023/11/13 09:29:03;;;;;;;9.27;5.47;;;;;;;7.46;89.67;99887.59;6194236;28;20046;-73
2023/11/13 09:32:08;;;;;;;10.95;6.28;;;;;;;7.31;89.03;99901.38;6194288;28;20397;-72
2023/11/13 09:35:18;;;;;;;16.00;5.85;;;;;;;7.41;89.86;99902.59;6194056;28;20469;-73
2023/11/13 09:38:19;;;;;;;16.27;10.55;;;;;;;7.50;91.08;99903.88;6194259;28;20050;-72
2023/11/13 09:41:25;;;;;;;14.50;8.68;;;;;;;7.57;91.17;99904.38;6195592;28;20046;-76
2023/11/13 09:44:26;;;;;;;12.23;6.38;;;;;;;7.70;91.53;99889.88;6195162;28;20058;-73
2023/11/13 09:47:29;;;;;;;11.70;6.55;;;;;;;7.82;91.49;99893.56;6195126;28;20195;-76
2023/11/13 09:50:30;;;;;;;;;;;;;;;7.92;91.01;99881.78;6194638;28;20046;-76
2023/11/13 09:53:34;;;;;;;11.32;5.20;;;;;;;7.95;89.64;99866.03;6193797;28;19929;-72
2023/11/13 09:56:35;;;;;;;10.02;5.72;;;;;;;8.05;88.28;99864.63;6195005;28;20141;-73
2023/11/13 09:59:36;;;;;;;10.98;6.57;;;;;;;8.16;89.73;99869.25;6193661;28;20050;-76
2023/11/13 10:02:41;;;;;;;17.02;4.53;;;;;;;8.24;88.79;99874.88;6194942;28;20409;-73
2023/11/13 10:05:43;;;;;;;13.75;4.60;;;;;;;8.23;87.85;99867.97;6193541;28;20420;-75
2023/11/13 10:08:49;;;;;;;6.95;4.32;;;;;;;8.27;86.99;99874.69;6193838;28;20453;-76
2023/11/13 10:11:51;;;;;;;7.88;4.53;;;;;;;8.18;87.10;99870.00;6193579;28;20086;-76
2023/11/13 10:15:13;;;;;;;7.63;4.32;;;;;;;8.21;85.82;99872.41;6194141;28;20050;-76
2023/11/13 10:18:24;;;;;;;7.63;4.35;;;;;;;8.27;85.29;99872.09;6198329;28;20052;-76
2023/11/13 10:21:34;;;;;;;7.22;4.40;;;;;;;8.41;86.00;99870.53;6198437;28;20042;-72
2023/11/13 10:24:36;;;;;;;9.93;5.03;;;;;;;8.42;87.02;99869.59;6197932;28;20485;-73
2023/11/13 10:27:46;;;;;;;8.27;4.53;;;;;;;8.55;87.70;99864.59;6198237;28;20050;-74
2023/11/13 10:30:56;;;;;;;14.43;4.50;;;;;;;8.64;85.14;99861.47;6199289;28;20405;-72
2023/11/13 10:34:02;;;;;;;7.75;4.22;;;;;;;8.69;82.67;99856.84;6199174;28;20497;-75
2023/11/13 10:37:11;;;;;;;7.63;4.43;;;;;;;8.76;82.79;99850.38;6197904;28;20133;-73
2023/11/13 10:40:15;;;;;;;9.85;4.43;;;;;;;8.70;85.81;99849.88;6198041;28;20050;-73
2023/11/13 10:43:44;;;;;;;6.95;4.10;;;;;;;8.80;86.01;99851.03;6198954;28;20390;-76
2023/11/13 10:46:45;;;;;;;8.73;4.88;;;;;;;8.83;87.16;99846.50;6198715;28;20088;-73
2023/11/13 10:49:48;;;;;;;21.00;9.43;;;;;;;8.82;86.18;99842.22;6197876;28;20046;-72
2023/11/13 10:52:54;;;;;;;14.32;5.78;;;;;;;8.82;85.78;99847.41;6197458;28;20057;-76
2023/11/13 10:56:00;;;;;;;12.85;5.47;;;;;;;8.91;84.70;99846.03;6199105;28;20050;-76
2023/11/13 10:59:03;;;;;;;8.57;4.63;;;;;;;8.90;84.96;99849.59;6198154;28;20065;-76
2023/11/13 11:02:12;;;;;;;16.38;7.85;;;;;;;8.88;85.36;99848.84;6198343;28;20496;-73
2023/11/13 11:05:26;;;;;;;8.60;4.45;;;;;;;8.80;84.45;99836.25;6198609;28;20046;-73
2023/11/13 11:08:28;;;;;;;17.92;9.02;;;;;;;8.75;85.17;99834.84;6197478;28;20053;-73
2023/11/13 11:11:34;;;;;;;14.43;7.40;;;;;;;8.77;86.24;99833.00;6198535;28;20078;-76
2023/11/13 11:15:08;;;;;;;11.43;6.38;;;;;;;8.81;83.76;99839.69;6198488;28;20374;-76
2023/11/13 11:18:28;;;;;;;8.23;4.75;;;;;;;8.85;82.48;99834.25;6197449;28;20053;-73
2023/11/13 11:21:50;;;;;;;8.57;4.70;;;;;;;8.87;81.29;99832.41;6198552;28;20038;-73
2023/11/13 11:25:06;;;;;;;10.27;4.38;;;;;;;8.74;77.03;99836.63;6197785;28;20536;-72
2023/11/13 11:28:37;;;;;;;8.13;4.55;;;;;;;8.70;79.97;99837.72;6197987;28;20061;-73
2023/11/13 11:31:38;;;;;;;6.63;3.50;;;;;;;8.71;80.72;99838.53;6197745;28;20097;-73
2023/11/13 11:34:52;;;;;;;7.18;4.43;;;;;;;8.73;80.56;99834.94;6197426;28;20047;-76
2023/11/13 11:38:15;;;;;;;11.27;6.63;;;;;;;8.87;80.30;99822.00;6198130;28;20051;-73
2023/11/13 11:41:38;;;;;;;;;;;;;;;9.04;78.55;99823.59;6176789;28;20138;-73
2023/11/13 11:45:07;;;;;;;9.75;4.65;;;;;;;9.25;79.37;99810.25;6173646;28;19977;-73
2023/11/13 11:48:08;;;;;;;8.05;4.80;;;;;;;9.38;80.56;99794.75;6171734;28;20058;-76
2023/11/13 11:51:17;;;;;;;9.30;4.27;;;;;;;9.38;79.96;99795.56;6172310;28;20528;-76
2023/11/13 11:54:18;;;;;;;9.05;4.97;;;;;;;9.49;78.02;99781.88;6173745;28;20059;-75
2023/11/13 11:57:21;;;;;;;10.80;5.30;;;;;;;9.48;79.01;99783.66;6172094;28;20046;-76
2023/11/13 12:00:23;;;;;;;10.93;5.30;;;;;;;9.58;79.65;99788.34;6171998;28;20057;-72
2023/11/13 12:03:25;;;;;;;9.45;4.82;;;;;;;9.43;77.50;99788.34;6173151;28;20472;-72
2023/11/13 12:06:26;;;;;;;14.82;4.72;;;;;;;9.30;76.34;99784.78;6173000;28;20089;-73
2023/11/13 12:09:32;;;;;;;9.33;4.50;;;;;;;9.37;78.42;99780.88;6171960;28;20097;-72
2023/11/13 12:12:41;;;;;;;7.60;4.20;;;;;;;9.32;78.12;99767.28;6172905;28;20650;-75
2023/11/13 12:15:45;;;;;;;9.05;4.78;;;;;;;9.35;79.97;99766.25;6172973;28;20098;-75
2023/11/13 12:18:46;;;;;;;10.82;5.57;;;;;;;9.21;78.24;99765.34;6172596;28;20098;-75
2023/11/13 12:21:49;;;;;;;7.75;4.10;;;;;;;9.20;79.01;99760.22;6173076;28;20051;-75
2023/11/13 12:24:51;;;;;;;6.90;4.30;;;;;;;9.13;78.52;99767.56;6171333;28;20498;-76
2023/11/13 12:27:55;;;;;;;7.60;4.20;;;;;;;9.19;78.81;99769.81;6171363;28;20059;-73
2023/11/13 12:30:56;;;;;;;8.13;4.28;;;;;;;9.17;80.45;99753.44;6187662;28;20050;-72
2023/11/13 12:33:58;;;;;;;7.60;4.05;;;;;;;9.17;79.58;99766.47;6187706;28;20058;-76
2023/11/13 12:36:59;;;;;;;8.25;4.18;;;;;;;9.10;79.90;99756.50;6172277;28;20050;-75
2023/11/13 12:40:04;;;;;;;8.45;4.20;;;;;;;9.06;79.61;99753.25;6171884;28;20461;-73
2023/11/13 12:43:05;;;;;;;14.45;4.25;;;;;;;9.14;79.64;99748.44;6171037;28;20059;-73
2023/11/13 12:46:06;;;;;;;12.98;4.00;;;;;;;9.28;79.34;99745.81;6171827;28;20450;-75
2023/11/13 12:49:11;;;;;;;6.40;3.63;;;;;;;9.22;79.16;99751.38;6170946;28;20057;-75
2023/11/13 12:52:16;;;;;;;6.78;3.88;;;;;;;9.39;79.37;99749.53;6170821;28;20272;-76
2023/11/13 12:55:18;;;;;;;7.22;3.47;;;;;;;9.28;78.39;99747.56;6171872;28;20413;-72
2023/11/13 12:58:18;;;;;;;8.27;3.40;;;;;;;9.27;78.61;99748.53;6172410;28;20051;-72
2023/11/13 13:01:21;;;;;;;7.00;3.60;;;;;;;9.16;78.81;99759.59;6171928;28;20086;-72
2023/11/13 13:04:22;;;;;;;8.05;3.33;;;;;;;9.12;79.61;99746.81;6171907;28;20059;-75
2023/11/13 13:07:23;;;;;;;7.55;3.53;;;;;;;9.13;80.71;99757.16;6170678;28;20058;-73
2023/11/13 13:10:24;;;;;;;5.03;2.90;;;;;;;9.14;81.80;99752.78;6170323;28;20383;-73
2023/11/13 13:13:27;;;;;;;6.28;3.50;;;;;;;9.12;81.34;99744.22;6170547;28;20055;-73
2023/11/13 13:16:29;;;;;;;5.95;3.40;;;;;;;9.21;80.72;99759.31;6171616;28;20057;-73
2023/11/13 13:19:37;;;;;;;9.48;4.85;;;;;;;9.24;80.82;99772.13;6171404;28;20050;-73
2023/11/13 13:22:37;;;;;;;7.65;4.10;;;;;;;9.26;81.83;99757.25;6171623;28;20051;-73
2023/11/13 13:25:39;;;;;;;26.90;11.80;;;;;;;9.19;82.37;99758.56;6186175;28;20047;-73
2023/11/13 13:28:43;;;;;;;32.60;14.25;;;;;;;9.15;82.99;99747.50;6171484;28;20406;-73
2023/11/13 13:31:44;;;;;;;15.82;7.80;;;;;;;9.15;83.57;99757.06;6171300;28;20043;-76
2023/11/13 13:34:45;;;;;;;10.45;5.35;;;;;;;9.21;82.87;99760.13;6170319;28;20082;-73
2023/11/13 13:37:46;;;;;;;9.25;5.15;;;;;;;9.20;82.03;99766.25;6170071;28;20114;-73
2023/11/13 13:40:48;;;;;;;10.55;5.82;;;;;;;9.16;82.17;99761.34;6171344;28;20051;-75
2023/11/13 13:43:49;;;;;;;10.25;4.15;;;;;;;9.16;83.34;99754.38;6170058;28;20059;-72
2023/11/13 13:46:53;;;;;;;12.15;4.20;;;;;;;9.14;82.58;99758.84;6170977;28;20494;-76
2023/11/13 13:49:58;;;;;;;6.50;3.30;;;;;;;9.17;82.51;99750.00;6173777;28;20722;-72
2023/11/13 13:53:03;;;;;;;57.60;17.70;;;;;;;8.99;81.94;99754.53;6191113;28;20582;-73
2023/11/13 13:56:09;;;;;;;43.13;16.10;;;;;;;8.92;80.88;99748.03;6174854;28;20054;-76
2023/11/13 13:59:14;;;;;;;39.58;15.18;;;;;;;8.71;79.89;99727.56;6176328;28;20051;-73
2023/11/13 14:02:15;;;;;;;22.83;10.52;;;;;;;8.75;79.56;99722.97;6175960;28;20062;-72
2023/11/13 14:05:17;;;;;;;22.23;8.68;;;;;;;8.73;80.37;99719.63;6175619;28;20059;-74
2023/11/13 14:08:19;;;;;;;13.27;7.20;;;;;;;8.67;79.52;99732.09;6174755;28;20141;-76
2023/11/13 14:11:22;;;;;;;12.77;6.13;;;;;;;8.72;80.15;99728.38;6190592;28;20046;-73
2023/11/13 14:14:23;;;;;;;11.15;7.13;;;;;;;8.71;80.93;99737.09;6190771;28;20086;-75
2023/11/13 14:17:26;;;;;;;14.07;5.13;;;;;;;8.75;81.24;99729.03;6174293;28;20069;-73
2023/11/13 14:20:27;;;;;;;10.00;5.40;;;;;;;8.66;82.14;99725.19;6175378;28;20346;-76
2023/11/13 14:23:28;;;;;;;10.77;6.15;;;;;;;8.72;82.48;99730.97;6175434;28;20489;-76